Time;durP1;ratioP1;P1;durP2;ratioP2;P2;SDS_P1;SDS_P2;PMS_P1;PMS_P2;Temp;Humidity;BMP_temperature;BMP_pressure;BME280_temperature;BME280_humidity;BME280_pressure;Samples;Min_cycle;Max_cycle;Signal;HPM_P1;HPM_P2
2021/09/28 00:00:27;;;;;;;3.60;3.30;;;;;;;22.03;89.88;97908.06;4959333;28;20551;-62
2021/09/28 00:02:54;;;;;;;3.37;3.07;;;;;;;22.02;89.70;97912.28;4989800;28;20229;-63
2021/09/28 00:05:21;;;;;;;3.30;3.10;;;;;;;22.02;89.67;97911.44;4959938;28;20250;-62
2021/09/28 00:07:47;;;;;;;3.53;3.23;;;;;;;22.01;89.77;97915.69;4955484;28;20589;-63
2021/09/28 00:10:14;;;;;;;3.10;2.90;;;;;;;22.00;89.70;97918.19;4970203;28;20286;-63
2021/09/28 00:12:41;;;;;;;3.30;3.00;;;;;;;21.99;89.93;97914.75;4987045;28;20265;-63
2021/09/28 00:15:08;;;;;;;3.03;2.83;;;;;;;21.90;90.07;97906.75;4948088;28;20203;-63
2021/09/28 00:17:35;;;;;;;3.20;2.90;;;;;;;21.98;90.20;97919.81;4967569;28;20231;-63
2021/09/28 00:20:03;;;;;;;3.30;3.00;;;;;;;21.98;89.88;97918.16;4956567;28;20261;-62
2021/09/28 00:22:30;;;;;;;3.60;3.30;;;;;;;21.97;90.26;97915.53;4958581;28;20686;-63
2021/09/28 00:24:57;;;;;;;2.80;2.60;;;;;;;21.97;90.47;97921.53;4988238;28;20657;-63
2021/09/28 00:27:23;;;;;;;3.27;3.00;;;;;;;21.96;90.15;97917.22;4959650;28;20273;-63
2021/09/28 00:29:50;;;;;;;4.03;3.30;;;;;;;21.97;90.47;97916.41;4969297;28;20229;-62
2021/09/28 00:32:17;;;;;;;2.80;2.60;;;;;;;21.46;90.30;97832.72;4968568;28;20214;-64
2021/09/28 00:34:45;;;;;;;3.20;3.00;;;;;;;21.93;90.21;97911.13;4955348;28;20627;-63
2021/09/28 00:37:11;;;;;;;3.50;3.20;;;;;;;21.97;90.62;97923.22;4977212;28;20234;-63
2021/09/28 00:39:38;;;;;;;4.17;3.20;;;;;;;21.97;90.15;97923.22;4953995;28;20204;-63
2021/09/28 00:42:05;;;;;;;3.20;3.00;;;;;;;21.96;90.31;97919.78;4977115;28;20206;-63
2021/09/28 00:44:36;;;;;;;3.20;2.90;;;;;;;21.98;90.20;97927.50;4959050;28;20229;-63
2021/09/28 00:47:04;;;;;;;3.00;2.80;;;;;;;21.82;90.32;97905.66;4949210;28;20226;-61
2021/09/28 00:49:31;;;;;;;2.90;2.70;;;;;;;21.97;90.54;97926.66;4969333;28;20220;-63
2021/09/28 00:51:57;;;;;;;3.40;3.10;;;;;;;21.97;90.20;97934.34;4955990;28;20615;-62
2021/09/28 00:54:24;;;;;;;3.07;2.83;;;;;;;21.89;90.31;97915.28;4957816;28;20661;-63
2021/09/28 00:56:52;;;;;;;3.10;2.90;;;;;;;21.96;90.39;97926.59;4968340;28;20724;-62
2021/09/28 00:59:19;;;;;;;3.00;2.80;;;;;;;21.97;90.48;97936.00;4974655;28;20200;-62
2021/09/28 01:01:46;;;;;;;3.40;3.10;;;;;;;21.93;90.29;97921.38;4967248;28;20254;-62
2021/09/28 01:04:16;;;;;;;3.30;3.00;;;;;;;21.97;90.29;97928.31;4948269;28;20211;-63
2021/09/28 01:06:43;;;;;;;3.20;3.00;;;;;;;21.97;90.48;97930.88;4952487;28;20282;-63
2021/09/28 01:09:11;;;;;;;3.10;2.87;;;;;;;21.97;90.56;97925.78;4959661;28;20699;-63
2021/09/28 01:11:41;;;;;;;3.73;3.17;;;;;;;21.97;90.19;97928.31;4953883;28;20250;-63
2021/09/28 01:14:08;;;;;;;3.10;2.90;;;;;;;21.96;90.40;97924.03;4949175;28;20227;-63
2021/09/28 01:16:34;;;;;;;3.63;3.33;;;;;;;21.96;90.53;97932.56;4958198;28;20378;-63
2021/09/28 01:19:01;;;;;;;3.13;2.87;;;;;;;21.96;90.58;97918.91;4956718;28;20203;-63
2021/09/28 01:21:28;;;;;;;3.20;2.97;;;;;;;21.97;90.49;97925.78;4958565;28;20207;-63
2021/09/28 01:23:55;;;;;;;3.27;2.97;;;;;;;21.77;90.45;97901.19;4961877;28;20199;-63
2021/09/28 01:26:24;;;;;;;3.20;2.90;;;;;;;21.97;90.68;97938.56;4989040;28;20258;-61
2021/09/28 01:28:52;;;;;;;3.33;3.03;;;;;;;21.96;90.35;97940.25;4954954;28;20231;-63
2021/09/28 01:31:18;;;;;;;3.07;2.87;;;;;;;21.96;90.74;97931.72;4958293;28;20231;-63
2021/09/28 01:33:45;;;;;;;3.47;3.17;;;;;;;21.97;90.45;97933.44;4978048;28;20640;-63
2021/09/28 01:36:12;;;;;;;3.13;2.93;;;;;;;21.52;90.43;97853.38;4973015;28;20227;-63
2021/09/28 01:38:39;;;;;;;3.30;3.00;;;;;;;21.87;90.50;97919.47;4956294;28;20236;-63
2021/09/28 01:41:05;;;;;;;3.60;3.30;;;;;;;21.96;90.56;97931.72;4959383;28;20257;-63
2021/09/28 01:43:32;;;;;;;3.33;3.03;;;;;;;21.97;90.44;97936.88;4962454;28;20222;-63
2021/09/28 01:46:00;;;;;;;3.70;3.40;;;;;;;21.96;90.49;97934.28;4973815;28;20249;-63
2021/09/28 01:48:48;;;;;;;3.10;2.90;;;;;;;21.94;90.41;97933.34;4957921;28;20231;-61
2021/09/28 01:51:15;;;;;;;3.00;2.80;;;;;;;21.94;90.43;97930.78;4972410;28;20292;-63
2021/09/28 01:53:41;;;;;;;3.40;3.10;;;;;;;21.89;90.57;97925.50;4962497;28;20195;-63
2021/09/28 01:56:25;;;;;;;2.97;2.70;;;;;;;21.96;90.44;97941.94;4972770;28;20277;-63
2021/09/28 01:58:53;;;;;;;2.87;2.67;;;;;;;21.96;90.56;97950.47;4974274;28;20207;-63
2021/09/28 02:01:19;;;;;;;3.17;2.90;;;;;;;21.89;90.48;97939.97;4972362;28;20207;-63
2021/09/28 02:03:46;;;;;;;3.40;3.10;;;;;;;21.96;90.64;97947.91;4956561;28;20295;-62
2021/09/28 02:06:14;;;;;;;2.80;2.60;;;;;;;21.96;90.49;97952.19;4958390;28;20618;-63
2021/09/28 02:08:40;;;;;;;2.93;2.73;;;;;;;21.90;90.71;97939.19;4970155;28;20207;-63
2021/09/28 02:11:07;;;;;;;2.67;2.47;;;;;;;21.95;90.66;97953.88;4973981;28;20619;-63
2021/09/28 02:13:34;;;;;;;3.17;2.87;;;;;;;21.96;90.70;97954.75;4975340;28;20209;-63
2021/09/28 02:16:00;;;;;;;2.93;2.73;;;;;;;21.96;90.32;97952.19;4974859;28;20331;-63
2021/09/28 02:18:27;;;;;;;2.97;2.77;;;;;;;21.96;90.68;97950.47;4961525;28;20223;-61
2021/09/28 02:20:54;;;;;;;3.10;2.90;;;;;;;21.95;90.54;97951.31;4975586;28;20199;-63
2021/09/28 02:23:20;;;;;;;2.97;2.77;;;;;;;21.95;90.43;97953.00;4977512;28;20662;-63
2021/09/28 02:25:47;;;;;;;3.60;2.60;;;;;;;21.94;90.48;97951.25;4960610;28;20636;-63
2021/09/28 02:28:14;;;;;;;2.97;2.77;;;;;;;21.94;90.40;97953.81;4989665;28;20282;-63
2021/09/28 02:30:40;;;;;;;3.00;2.80;;;;;;;21.94;90.31;97958.94;4973224;28;20263;-63
2021/09/28 02:33:07;;;;;;;3.43;3.13;;;;;;;21.92;90.51;97946.09;4949308;28;20286;-63
2021/09/28 02:35:33;;;;;;;2.93;2.73;;;;;;;21.92;90.24;97956.31;4955441;28;20262;-63
2021/09/28 02:38:00;;;;;;;3.00;2.80;;;;;;;21.92;90.87;97955.44;4956515;28;20223;-63
2021/09/28 02:40:27;;;;;;;3.33;3.03;;;;;;;21.92;90.82;97961.44;4960253;28;20744;-61
2021/09/28 02:42:54;;;;;;;3.37;3.00;;;;;;;21.92;90.71;97968.22;4960805;28;20265;-63
2021/09/28 02:45:20;;;;;;;2.70;2.50;;;;;;;21.92;90.62;97970.78;4954890;28;20207;-63
2021/09/28 02:47:47;;;;;;;2.90;2.70;;;;;;;21.91;90.95;97969.94;4972460;28;20227;-63
2021/09/28 02:50:14;;;;;;;2.80;2.60;;;;;;;21.91;90.97;97969.94;4974435;28;20588;-63
2021/09/28 02:52:40;;;;;;;3.00;2.80;;;;;;;21.91;90.88;97972.50;4983692;28;20227;-63
2021/09/28 02:55:07;;;;;;;3.10;2.90;;;;;;;21.92;90.78;97975.91;4954848;28;20266;-63
2021/09/28 02:57:34;;;;;;;2.70;2.50;;;;;;;21.86;90.68;97962.91;4976314;28;20696;-63
2021/09/28 03:00:01;;;;;;;3.00;2.80;;;;;;;21.92;90.91;97984.47;4975048;28;20235;-63
2021/09/28 03:02:27;;;;;;;2.90;2.70;;;;;;;21.93;90.87;97975.13;4960121;28;20732;-61
2021/09/28 03:04:54;;;;;;;2.63;2.43;;;;;;;21.92;90.80;97974.22;4957655;28;20290;-63
2021/09/28 03:07:21;;;;;;;3.13;2.93;;;;;;;21.87;90.79;97969.78;4976933;28;20211;-63
2021/09/28 03:09:48;;;;;;;2.80;2.60;;;;;;;21.86;90.85;97962.91;4973480;28;20254;-63
2021/09/28 03:12:14;;;;;;;3.00;2.80;;;;;;;21.92;90.77;97975.91;4957244;28;20294;-63
2021/09/28 03:14:41;;;;;;;3.20;2.90;;;;;;;21.92;90.85;97976.78;4962566;28;20347;-63
2021/09/28 03:17:08;;;;;;;2.83;2.63;;;;;;;21.91;91.01;97980.19;4951924;28;20231;-63
2021/09/28 03:19:35;;;;;;;3.23;2.50;;;;;;;21.92;90.68;97981.91;4967658;28;20580;-63
2021/09/28 03:22:01;;;;;;;3.00;2.80;;;;;;;21.86;90.61;97971.47;4958730;28;20673;-63
2021/09/28 03:24:28;;;;;;;2.67;2.47;;;;;;;21.93;90.59;97985.34;4960417;28;20627;-61
2021/09/28 03:26:55;;;;;;;3.10;2.90;;;;;;;21.92;90.75;97978.47;4974256;28;20689;-63
2021/09/28 03:29:21;;;;;;;2.97;2.77;;;;;;;21.86;90.84;97975.69;4990563;28;20238;-63
2021/09/28 03:31:48;;;;;;;3.00;2.80;;;;;;;21.94;90.81;97987.09;4962497;28;20211;-63
2021/09/28 03:34:15;;;;;;;3.10;2.90;;;;;;;21.93;90.72;97987.91;4960998;28;20531;-63
2021/09/28 03:36:41;;;;;;;2.90;2.70;;;;;;;21.94;90.70;97992.19;4958790;28;20712;-61
2021/09/28 03:39:08;;;;;;;2.80;2.60;;;;;;;21.93;90.83;97991.31;4968292;28;20265;-62
2021/09/28 03:41:35;;;;;;;3.03;2.83;;;;;;;21.93;90.55;97995.59;4988065;28;20215;-63
2021/09/28 03:44:01;;;;;;;2.90;2.70;;;;;;;21.86;90.89;97979.13;4958266;28;20203;-63
2021/09/28 03:46:28;;;;;;;3.20;2.90;;;;;;;21.93;90.80;97998.16;4957003;28;20203;-62
2021/09/28 03:48:54;;;;;;;3.10;2.90;;;;;;;21.93;90.63;97996.44;4971544;28;20207;-61
2021/09/28 03:51:21;;;;;;;2.90;2.70;;;;;;;21.86;90.82;97989.38;4964463;28;20265;-63
2021/09/28 03:53:51;;;;;;;3.00;2.80;;;;;;;21.93;90.83;98003.28;4959164;28;20673;-63
2021/09/28 03:56:19;;;;;;;3.00;2.80;;;;;;;21.87;90.82;98008.16;4985670;28;20215;-63
2021/09/28 03:58:45;;;;;;;2.93;2.73;;;;;;;21.87;90.94;98008.16;4970522;28;20262;-62
2021/09/28 04:01:12;;;;;;;2.73;2.53;;;;;;;21.93;90.76;98021.19;4966933;28;20211;-63
2021/09/28 04:03:42;;;;;;;2.93;2.73;;;;;;;21.92;90.68;98015.19;4957801;28;20199;-63
2021/09/28 04:06:09;;;;;;;2.90;2.70;;;;;;;21.88;90.57;98010.78;4948379;28;20203;-63
2021/09/28 04:08:36;;;;;;;3.13;2.93;;;;;;;21.92;90.71;98012.63;4976459;28;20242;-63
2021/09/28 04:11:02;;;;;;;2.70;2.50;;;;;;;21.92;90.51;98020.28;4953007;28;20681;-61
2021/09/28 04:13:29;;;;;;;2.67;2.47;;;;;;;21.91;90.79;98026.25;4971074;28;20672;-61
2021/09/28 04:15:56;;;;;;;3.00;2.80;;;;;;;21.90;90.57;98024.47;4985257;28;20199;-62
2021/09/28 04:18:23;;;;;;;2.97;2.77;;;;;;;21.86;90.63;98021.75;4984711;28;20630;-63
2021/09/28 04:20:49;;;;;;;2.97;2.77;;;;;;;21.83;90.96;98019.09;4982664;28;20204;-62
2021/09/28 04:23:16;;;;;;;2.70;2.50;;;;;;;21.85;90.89;98028.59;4972235;28;20635;-61
2021/09/28 04:25:43;;;;;;;2.73;2.53;;;;;;;21.89;91.10;98035.53;4961400;28;20230;-62
2021/09/28 04:28:10;;;;;;;2.90;2.70;;;;;;;21.90;90.97;98039.84;4979173;28;20680;-61
2021/09/28 04:30:36;;;;;;;2.97;2.77;;;;;;;21.90;90.97;98039.84;4969368;28;20588;-62
2021/09/28 04:33:03;;;;;;;2.97;2.63;;;;;;;21.90;90.97;98042.41;4983085;28;20203;-61
2021/09/28 04:35:30;;;;;;;2.83;2.63;;;;;;;21.90;91.13;98044.09;4984650;28;20222;-62
2021/09/28 04:37:56;;;;;;;2.63;2.43;;;;;;;21.83;90.90;98031.88;4983955;28;20223;-63
2021/09/28 04:40:23;;;;;;;4.17;2.40;;;;;;;21.91;90.97;98045.84;4955792;28;20245;-62
2021/09/28 04:42:50;;;;;;;3.00;2.80;;;;;;;21.91;90.86;98043.28;4985176;28;20231;-62
2021/09/28 04:45:16;;;;;;;2.90;2.70;;;;;;;21.91;90.86;98043.28;4986062;28;20231;-63
2021/09/28 04:47:43;;;;;;;3.03;2.67;;;;;;;21.91;91.05;98043.28;4986603;28;20226;-63
2021/09/28 04:50:10;;;;;;;2.50;2.30;;;;;;;21.89;91.05;98043.22;4983946;28;20725;-63
2021/09/28 04:52:36;;;;;;;3.07;2.80;;;;;;;21.92;91.04;98048.44;4986653;28;20282;-63
2021/09/28 04:55:06;;;;;;;3.13;2.87;;;;;;;21.92;90.89;98045.00;4983755;28;20282;-63
2021/09/28 04:57:33;;;;;;;3.07;2.87;;;;;;;21.89;90.90;98039.78;4988693;28;20242;-63
2021/09/28 05:00:00;;;;;;;2.87;2.67;;;;;;;21.92;90.94;98048.44;4982130;28;20230;-62
2021/09/28 05:02:26;;;;;;;2.67;2.47;;;;;;;21.93;90.92;98052.75;4978075;28;20242;-61
2021/09/28 05:04:53;;;;;;;2.90;2.70;;;;;;;21.93;90.94;98057.00;4956674;28;20290;-62
2021/09/28 05:07:20;;;;;;;3.37;3.07;;;;;;;21.92;90.74;98058.69;4984858;28;20249;-63
2021/09/28 05:09:46;;;;;;;2.90;2.70;;;;;;;21.83;90.77;98047.25;4986604;28;20196;-62
2021/09/28 05:12:13;;;;;;;3.10;2.90;;;;;;;21.91;91.28;98066.31;4988797;28;20233;-63
2021/09/28 05:14:39;;;;;;;2.93;2.63;;;;;;;21.90;90.51;98067.13;4991438;28;20234;-61
2021/09/28 05:17:06;;;;;;;2.83;2.63;;;;;;;21.77;89.39;98047.91;4990667;28;20686;-63
2021/09/28 05:19:33;;;;;;;3.10;2.80;;;;;;;21.92;89.78;98076.59;4985333;28;20251;-63
2021/09/28 05:21:59;;;;;;;3.50;3.20;;;;;;;21.93;90.08;98077.47;4993770;28;20261;-63
2021/09/28 05:24:26;;;;;;;3.37;2.83;;;;;;;21.94;90.67;98077.53;4987502;28;20226;-60
2021/09/28 05:26:52;;;;;;;3.17;2.87;;;;;;;21.88;90.41;98073.88;4991028;28;20231;-62
2021/09/28 05:29:19;;;;;;;3.67;3.00;;;;;;;21.94;90.12;98098.00;4974439;28;20262;-63
2021/09/28 05:31:47;;;;;;;2.90;2.70;;;;;;;21.95;90.25;98102.31;4960031;28;20257;-63
2021/09/28 05:34:15;;;;;;;3.30;2.53;;;;;;;21.95;90.32;98103.97;4975026;28;20202;-63
2021/09/28 05:36:42;;;;;;;3.13;2.90;;;;;;;21.95;90.30;98107.44;4972114;28;20227;-63
2021/09/28 05:39:09;;;;;;;2.70;2.50;;;;;;;21.95;90.39;98112.53;4962837;28;20203;-63
2021/09/28 05:41:35;;;;;;;6.17;3.20;;;;;;;21.96;90.17;98116.00;4960964;28;20211;-63
2021/09/28 05:44:02;;;;;;;2.63;2.43;;;;;;;21.96;89.95;98123.66;4975681;28;20210;-63
2021/09/28 05:46:29;;;;;;;3.07;2.77;;;;;;;21.95;89.31;98117.66;4961312;28;20204;-63
2021/09/28 05:48:56;;;;;;;2.87;2.67;;;;;;;21.89;89.24;98114.00;4974520;28;20210;-62
2021/09/28 05:51:25;;;;;;;4.03;2.47;;;;;;;21.94;89.32;98117.59;4976059;28;20195;-63
2021/09/28 05:53:51;;;;;;;3.07;2.80;;;;;;;21.95;89.28;98124.47;4974381;28;20265;-63
2021/09/28 05:56:18;;;;;;;3.60;2.50;;;;;;;21.27;89.51;98007.63;4965728;28;20211;-63
2021/09/28 05:58:45;;;;;;;3.17;2.67;;;;;;;21.92;89.59;98124.34;4960299;28;20573;-61
2021/09/28 06:01:11;;;;;;;3.83;2.53;;;;;;;21.97;89.69;98136.50;4965376;28;20204;-63
2021/09/28 06:03:38;;;;;;;2.83;2.63;;;;;;;21.98;89.74;98139.94;4956189;28;20665;-63
2021/09/28 06:06:05;;;;;;;2.63;2.43;;;;;;;21.98;89.69;98137.38;4976248;28;20226;-62
2021/09/28 06:08:32;;;;;;;7.17;2.30;;;;;;;21.84;89.68;98111.25;4961734;28;20223;-62
2021/09/28 06:10:59;;;;;;;2.67;2.40;;;;;;;21.99;89.71;98142.53;4974782;28;20238;-63
2021/09/28 06:13:25;;;;;;;2.40;2.20;;;;;;;21.97;89.49;98146.75;4975783;28;20622;-62
2021/09/28 06:15:52;;;;;;;2.63;2.43;;;;;;;22.00;89.42;98151.09;4974863;28;20298;-62
2021/09/28 06:18:20;;;;;;;2.53;2.23;;;;;;;21.99;89.32;98152.78;4981384;28;20282;-62
2021/09/28 06:20:46;;;;;;;2.33;2.13;;;;;;;22.00;89.19;98151.09;4957898;28;20231;-63
2021/09/28 06:23:13;;;;;;;2.17;1.97;;;;;;;21.92;89.19;98132.91;4978492;28;20215;-62
2021/09/28 06:25:40;;;;;;;3.67;2.50;;;;;;;21.99;89.35;98149.38;4991565;28;20231;-62
2021/09/28 06:28:06;;;;;;;3.10;2.20;;;;;;;21.97;89.15;98151.88;4994253;28;20222;-63
2021/09/28 06:30:33;;;;;;;3.37;2.30;;;;;;;21.98;89.34;98156.16;4968745;28;20208;-60
2021/09/28 06:33:00;;;;;;;4.23;2.20;;;;;;;21.98;89.32;98160.41;4959849;28;20215;-62
2021/09/28 06:35:26;;;;;;;2.97;2.20;;;;;;;21.97;89.30;98157.00;4966699;28;20227;-63
2021/09/28 06:37:54;;;;;;;2.27;2.07;;;;;;;21.98;87.81;98155.28;4991149;28;20886;-63
2021/09/28 06:40:21;;;;;;;8.23;2.47;;;;;;;21.97;85.36;98159.56;4992472;28;20613;-62
2021/09/28 06:42:48;;;;;;;8.83;2.30;;;;;;;21.91;84.31;98153.31;4991111;28;20210;-63
2021/09/28 06:45:15;;;;;;;5.27;2.00;;;;;;;21.96;84.48;98165.47;4961849;28;20234;-63
2021/09/28 06:47:42;;;;;;;2.50;1.83;;;;;;;21.96;84.89;98165.47;4958345;28;20223;-63
2021/09/28 06:50:09;;;;;;;2.20;2.00;;;;;;;21.96;85.67;98167.16;4964877;28;20212;-63
2021/09/28 06:52:36;;;;;;;5.53;2.17;;;;;;;21.38;85.76;98071.94;4968716;28;20292;-63
2021/09/28 06:55:04;;;;;;;2.73;2.17;;;;;;;21.94;86.26;98162.00;4974625;28;20732;-63
2021/09/28 06:57:30;;;;;;;3.63;2.20;;;;;;;21.96;86.50;98173.13;4974746;28;20277;-62
2021/09/28 06:59:57;;;;;;;3.43;2.60;;;;;;;21.91;87.06;98163.56;4960913;28;20198;-62
2021/09/28 07:02:23;;;;;;;2.97;2.20;;;;;;;21.90;87.26;98156.72;4971691;28;20266;-63
2021/09/28 07:04:50;;;;;;;2.20;2.00;;;;;;;21.95;87.37;98173.97;4963475;28;20219;-62
2021/09/28 07:07:17;;;;;;;3.23;2.20;;;;;;;21.95;87.69;98175.63;4960827;28;20270;-63
2021/09/28 07:09:44;;;;;;;2.30;2.10;;;;;;;21.88;87.63;98160.88;4972549;28;20211;-62
2021/09/28 07:12:11;;;;;;;3.33;2.03;;;;;;;21.88;87.66;98166.00;4957248;28;20242;-62
2021/09/28 07:14:38;;;;;;;2.50;2.10;;;;;;;21.95;87.89;98179.09;4971836;28;20375;-62
2021/09/28 07:17:05;;;;;;;3.10;2.10;;;;;;;21.90;87.85;98179.75;4962021;28;20293;-63
2021/09/28 07:19:31;;;;;;;2.30;2.10;;;;;;;21.94;86.95;98179.03;4990516;28;20190;-62
2021/09/28 07:21:58;;;;;;;2.93;2.20;;;;;;;21.93;84.89;98183.25;4991252;28;20262;-61
2021/09/28 07:24:24;;;;;;;6.10;2.30;;;;;;;21.94;84.36;98184.16;4991856;28;20273;-63
2021/09/28 07:26:51;;;;;;;7.67;2.67;;;;;;;21.82;84.75;98166.66;4993786;28;20300;-63
2021/09/28 07:29:18;;;;;;;3.10;2.20;;;;;;;21.94;84.99;98184.16;4984530;28;20665;-63
2021/09/28 07:31:45;;;;;;;2.30;2.10;;;;;;;21.94;84.96;98185.03;4991079;28;20209;-63
2021/09/28 07:34:11;;;;;;;5.70;2.40;;;;;;;21.94;85.83;98189.25;4990015;28;20285;-63
2021/09/28 07:36:38;;;;;;;5.83;2.67;;;;;;;21.94;85.38;98192.72;4991321;28;20269;-62
2021/09/28 07:39:05;;;;;;;6.00;2.23;;;;;;;21.95;85.36;98196.13;4973208;28;20218;-61
2021/09/28 07:41:31;;;;;;;2.70;2.40;;;;;;;21.94;85.91;98192.72;4970821;28;20623;-63
2021/09/28 07:43:58;;;;;;;4.33;2.20;;;;;;;21.95;86.07;98196.13;4956296;28;20654;-63
2021/09/28 07:46:25;;;;;;;3.03;2.20;;;;;;;21.95;86.37;98194.44;4958696;28;20230;-62
2021/09/28 07:48:51;;;;;;;2.77;2.00;;;;;;;21.88;86.63;98176.22;4957332;28;20221;-63
2021/09/28 07:51:18;;;;;;;2.47;2.27;;;;;;;21.90;86.75;98177.19;4973982;28;20219;-63
2021/09/28 07:53:49;;;;;;;2.27;2.07;;;;;;;21.96;87.10;98203.84;4956021;28;20226;-63
2021/09/28 07:56:19;;;;;;;2.03;1.83;;;;;;;21.95;87.28;98204.69;4974146;28;20233;-63
2021/09/28 07:58:46;;;;;;;2.17;1.97;;;;;;;21.95;87.04;98202.13;4970207;28;20701;-62
2021/09/28 08:01:12;;;;;;;3.60;1.93;;;;;;;21.89;87.27;98198.44;4989668;28;20211;-63
2021/09/28 08:03:39;;;;;;;5.23;2.23;;;;;;;21.94;87.25;98205.50;4955258;28;20266;-62
2021/09/28 08:06:06;;;;;;;2.43;2.23;;;;;;;21.94;87.24;98209.75;4973489;28;20203;-63
2021/09/28 08:08:32;;;;;;;2.40;2.20;;;;;;;21.93;87.61;98201.19;4959744;28;20215;-62
2021/09/28 08:10:59;;;;;;;2.60;2.40;;;;;;;21.94;87.44;98204.63;4988300;28;20258;-63
2021/09/28 08:13:26;;;;;;;4.03;2.13;;;;;;;21.94;87.66;98202.06;4964965;28;20294;-63
2021/09/28 08:15:55;;;;;;;3.83;2.33;;;;;;;21.94;87.97;98204.63;4972991;28;20488;-63
2021/09/28 08:18:22;;;;;;;2.50;2.20;;;;;;;21.87;87.91;98194.97;4963240;28;20764;-62
2021/09/28 08:20:49;;;;;;;2.33;2.10;;;;;;;21.93;88.07;98211.41;4956132;28;20750;-63
2021/09/28 08:23:16;;;;;;;2.20;2.00;;;;;;;21.94;88.17;98202.06;4969848;28;20204;-63
2021/09/28 08:31:02;;;;;;;2.30;2.10;;;;;;;21.94;88.37;98207.19;4975616;28;20245;-63
2021/09/28 08:33:33;;;;;;;2.50;2.30;;;;;;;21.94;88.40;98210.63;4960054;28;20346;-62
2021/09/28 08:36:00;;;;;;;2.37;2.10;;;;;;;21.88;88.08;98191.59;4973282;28;20623;-63
2021/09/28 08:38:30;;;;;;;2.30;2.07;;;;;;;21.93;88.33;98203.75;4958934;28;20411;-63
2021/09/28 08:40:58;;;;;;;2.83;2.00;;;;;;;21.94;88.14;98209.75;4973546;28;20300;-62
2021/09/28 08:43:24;;;;;;;3.60;2.27;;;;;;;21.93;88.55;98205.44;4976720;28;20269;-63
2021/09/28 08:45:52;;;;;;;3.07;2.10;;;;;;;21.90;88.50;98200.22;4963608;28;20199;-63
2021/09/28 08:48:19;;;;;;;2.20;2.00;;;;;;;21.95;88.11;98208.91;4977079;28;20227;-63
2021/09/28 08:50:47;;;;;;;2.30;2.10;;;;;;;21.93;88.36;98201.19;4992915;28;20269;-63
2021/09/28 08:53:14;;;;;;;2.30;2.10;;;;;;;21.85;88.17;98187.25;4960682;28;20207;-63
2021/09/28 08:55:41;;;;;;;2.63;2.10;;;;;;;21.93;88.09;98205.44;4964620;28;20557;-63
2021/09/28 08:58:12;;;;;;;3.27;2.17;;;;;;;21.86;88.14;98185.53;4970196;28;20282;-63
2021/09/28 09:00:39;;;;;;;3.20;2.33;;;;;;;21.93;88.64;98208.00;4992536;28;20207;-63
2021/09/28 09:03:06;;;;;;;2.50;2.30;;;;;;;21.89;88.79;98201.88;4994416;28;20723;-62
2021/09/28 09:05:33;;;;;;;2.57;2.30;;;;;;;21.92;88.49;98202.00;4994363;28;20226;-63
2021/09/28 09:08:01;;;;;;;4.13;2.67;;;;;;;21.92;86.91;98203.69;4993809;28;20622;-63
2021/09/28 09:10:29;;;;;;;4.30;3.00;;;;;;;21.91;85.87;98205.38;4994141;28;20281;-63
2021/09/28 09:12:56;;;;;;;3.50;3.10;;;;;;;21.91;84.86;98202.81;4992655;28;20281;-63
2021/09/28 09:15:29;;;;;;;7.33;3.60;;;;;;;21.92;84.47;98206.25;4993819;28;20194;-63
2021/09/28 09:18:00;;;;;;;4.37;3.43;;;;;;;21.92;83.98;98203.69;4992008;28;20301;-62
2021/09/28 09:20:27;;;;;;;4.40;3.13;;;;;;;21.91;84.10;98200.28;4992870;28;20642;-63
2021/09/28 09:23:25;;;;;;;3.80;3.20;;;;;;;21.91;84.67;98204.50;4993724;28;20246;-63
2021/09/28 09:26:11;;;;;;;4.20;2.97;;;;;;;21.91;85.10;98195.16;4992444;28;20715;-63
2021/09/28 09:28:49;;;;;;;5.70;3.07;;;;;;;21.92;85.65;98196.00;4980844;28;20689;-63
2021/09/28 09:31:24;;;;;;;5.17;3.00;;;;;;;21.88;85.79;98187.34;4981103;28;20196;-62
2021/09/28 09:33:55;;;;;;;3.47;2.60;;;;;;;21.91;86.07;98195.16;4967759;28;20619;-60
2021/09/28 09:36:23;;;;;;;2.83;2.50;;;;;;;21.92;86.20;98184.09;4964707;28;20291;-61
2021/09/28 09:38:55;;;;;;;2.80;2.60;;;;;;;21.91;86.36;98173.78;4965884;28;20250;-62
2021/09/28 09:41:26;;;;;;;3.63;3.07;;;;;;;21.91;86.60;98184.91;4979819;28;20657;-63
2021/09/28 09:44:02;;;;;;;3.27;2.70;;;;;;;21.91;86.75;98184.03;5008414;23;20288;-68
2021/09/28 09:46:46;;;;;;;3.50;2.50;;;;;;;21.91;86.84;98176.34;5006656;28;20206;-70
2021/09/28 09:49:21;;;;;;;3.07;2.77;;;;;;;21.90;86.78;98175.47;5011042;28;20198;-70
2021/09/28 09:51:54;;;;;;;13.73;2.77;;;;;;;21.91;87.03;98181.47;4997964;28;20562;-70
2021/09/28 09:54:33;;;;;;;4.20;2.63;;;;;;;21.90;87.20;98175.47;5000959;28;20680;-68
2021/09/28 09:57:06;;;;;;;3.70;2.33;;;;;;;21.85;87.52;98165.88;5013484;28;20277;-69
2021/09/28 09:59:34;;;;;;;2.70;2.50;;;;;;;21.89;87.61;98170.28;5027527;28;20644;-71
2021/09/28 10:02:01;;;;;;;5.33;2.33;;;;;;;21.79;87.74;98153.72;5027756;28;20225;-70
2021/09/28 10:04:28;;;;;;;2.50;2.30;;;;;;;21.91;87.54;98163.56;5028993;28;21011;-69
2021/09/28 10:06:55;;;;;;;3.17;2.70;;;;;;;21.91;87.81;98161.88;5006004;28;20198;-70
2021/09/28 10:09:28;;;;;;;3.17;2.70;;;;;;;21.91;87.75;98164.44;5029229;28;20240;-68
2021/09/28 10:11:56;;;;;;;3.50;2.80;;;;;;;21.92;87.72;98162.72;5027127;28;20713;-70
2021/09/28 10:14:29;;;;;;;2.60;2.40;;;;;;;21.92;87.66;98160.16;5007835;28;20296;-70
2021/09/28 10:16:56;;;;;;;2.77;2.50;;;;;;;21.92;87.69;98170.41;5029743;28;20232;-69
2021/09/28 10:19:26;;;;;;;2.73;2.53;;;;;;;21.92;87.92;98163.63;5007519;28;20220;-68
2021/09/28 10:21:57;;;;;;;2.50;2.30;;;;;;;21.93;87.91;98167.91;5029880;28;20214;-70
2021/09/28 10:24:30;;;;;;;3.53;2.53;;;;;;;21.93;87.92;98159.38;5026369;28;20222;-70
2021/09/28 10:27:00;;;;;;;2.80;2.60;;;;;;;21.93;87.80;98161.94;5022658;28;20222;-70
2021/09/28 10:29:43;;;;;;;2.40;2.20;;;;;;;21.17;87.90;98041.28;5021494;28;20261;-70
2021/09/28 10:32:26;;;;;;;4.30;2.30;;;;;;;21.94;87.94;98158.56;5024825;28;20197;-70
2021/09/28 10:35:02;;;;;;;3.43;2.37;;;;;;;21.94;87.95;98166.22;5025578;28;20263;-70
2021/09/28 10:37:50;;;;;;;2.40;2.20;;;;;;;21.95;87.82;98160.28;5026555;28;20603;-69
2021/09/28 10:40:20;;;;;;;2.40;2.20;;;;;;;21.94;88.08;98159.44;5024385;28;20585;-73
2021/09/28 10:42:50;;;;;;;3.50;2.30;;;;;;;21.56;87.86;98088.00;5021378;28;20215;-71
2021/09/28 10:45:40;;;;;;;3.30;2.30;;;;;;;21.79;88.00;98127.28;5022775;28;20231;-71
2021/09/28 10:48:35;;;;;;;2.60;2.40;;;;;;;21.95;87.98;98156.06;5019394;28;20193;-70
2021/09/28 10:51:12;;;;;;;2.50;2.30;;;;;;;21.34;87.75;98060.72;5016016;28;20238;-71
2021/09/28 10:53:44;;;;;;;2.07;1.97;;;;;;;21.92;87.90;98144.81;5023751;28;20193;-70
2021/09/28 10:56:14;;;;;;;2.53;2.33;;;;;;;21.80;87.93;98127.31;5010076;28;20201;-70
2021/09/28 10:59:02;;;;;;;2.20;2.00;;;;;;;21.87;88.21;98141.22;5017834;28;20257;-70
2021/09/28 11:01:32;;;;;;;2.33;2.13;;;;;;;21.73;88.10;98116.78;5024317;28;20270;-70
2021/09/28 11:04:03;;;;;;;2.43;2.20;;;;;;;21.95;87.96;98142.38;5004071;28;20228;-69
2021/09/28 11:06:44;;;;;;;2.63;2.33;;;;;;;21.96;88.19;98156.94;5007592;28;20210;-71
2021/09/28 11:09:12;;;;;;;2.57;2.10;;;;;;;21.96;88.20;98149.25;4992863;28;20201;-70
2021/09/28 11:11:39;;;;;;;2.77;2.47;;;;;;;21.88;88.04;98128.50;4994296;28;20621;-70
2021/09/28 11:14:07;;;;;;;2.23;2.03;;;;;;;21.92;88.08;98130.34;5020882;28;20229;-70
2021/09/28 11:16:44;;;;;;;2.20;2.10;;;;;;;21.49;88.09;98051.06;4996251;28;20264;-71
2021/09/28 11:19:11;;;;;;;2.43;2.23;;;;;;;21.94;88.06;98123.59;4986696;28;20230;-70
2021/09/28 11:21:43;;;;;;;2.50;2.27;;;;;;;21.98;88.07;98122.91;4999546;28;20206;-70
2021/09/28 11:24:10;;;;;;;2.73;2.50;;;;;;;21.98;88.40;98116.88;4992182;28;20690;-70
2021/09/28 11:26:38;;;;;;;2.63;2.00;;;;;;;21.67;87.99;98053.44;4995641;28;20255;-71
2021/09/28 11:29:06;;;;;;;2.20;2.00;;;;;;;22.00;87.85;98116.16;5003455;28;20220;-71
2021/09/28 11:31:33;;;;;;;2.70;2.13;;;;;;;22.01;87.91;98111.88;5003797;28;20696;-70
2021/09/28 11:34:00;;;;;;;2.50;2.30;;;;;;;21.94;87.78;98085.22;5019036;28;20225;-70
2021/09/28 11:36:31;;;;;;;2.03;1.93;;;;;;;22.02;87.70;98093.16;5020685;28;20636;-69
2021/09/28 11:38:58;;;;;;;2.33;2.13;;;;;;;22.02;87.95;98101.69;5027347;28;20312;-72
2021/09/28 11:41:24;;;;;;;2.40;2.20;;;;;;;21.70;87.66;98036.53;5028025;28;20725;-70
2021/09/28 11:43:58;;;;;;;2.43;2.10;;;;;;;22.06;87.79;98092.44;5015296;28;20263;-70